Time;durP1;ratioP1;P1;durP2;ratioP2;P2;SDS_P1;SDS_P2;PMS_P1;PMS_P2;Temp;Humidity;BMP_temperature;BMP_pressure;BME280_temperature;BME280_humidity;BME280_pressure;Samples;Min_cycle;Max_cycle;Signal;HPM_P1;HPM_P2
2022/09/06 00:00:57;;;;;;;0.00;0.00;;;20.10;88.30;;;;;;5057290;28;20480;-80
2022/09/06 00:03:23;;;;;;;0.00;0.00;;;20.00;88.10;;;;;;5073821;28;20052;-80
2022/09/06 00:05:49;;;;;;;0.10;0.10;;;20.00;88.70;;;;;;5056885;28;20044;-80
2022/09/06 00:08:15;;;;;;;0.00;0.00;;;20.00;88.80;;;;;;5055900;28;20084;-80
2022/09/06 00:10:41;;;;;;;0.00;0.00;;;19.90;88.40;;;;;;5073538;28;20087;-80
2022/09/06 00:13:08;;;;;;;0.00;0.00;;;19.90;88.60;;;;;;5056475;28;20044;-80
2022/09/06 00:15:35;;;;;;;0.00;0.00;;;19.90;89.60;;;;;;5073449;28;20084;-80
2022/09/06 00:18:03;;;;;;;0.10;0.10;;;19.80;89.20;;;;;;5073338;28;20044;-80
2022/09/06 00:20:30;;;;;;;0.05;0.03;;;19.90;88.80;;;;;;5056442;28;20075;-80
2022/09/06 00:23:04;;;;;;;0.00;0.00;;;19.80;88.90;;;;;;5056706;28;20483;-80
2022/09/06 00:25:30;;;;;;;0.00;0.00;;;19.80;89.40;;;;;;5057132;28;20048;-80
2022/09/06 00:27:57;;;;;;;0.00;0.00;;;19.80;90.00;;;;;;5056769;28;20139;-80
2022/09/06 00:30:24;;;;;;;0.00;0.00;;;19.70;90.40;;;;;;5056387;28;20062;-80
2022/09/06 00:32:50;;;;;;;0.98;0.28;;;19.80;90.30;;;;;;5072812;28;20533;-80
2022/09/06 00:35:17;;;;;;;1.45;0.40;;;19.80;90.60;;;;;;5073085;28;20048;-80
2022/09/06 00:37:42;;;;;;;0.00;0.00;;;19.70;89.20;;;;;;5056550;28;20110;-80
2022/09/06 00:40:08;;;;;;;0.00;0.00;;;19.70;89.00;;;;;;5056595;28;20044;-80
2022/09/06 00:42:34;;;;;;;0.00;0.00;;;19.60;89.10;;;;;;5072872;28;20052;-79
2022/09/06 00:45:00;;;;;;;0.00;0.00;;;19.60;89.00;;;;;;5056198;28;20036;-80
2022/09/06 00:47:26;;;;;;;0.00;0.00;;;19.60;88.70;;;;;;5072881;28;20129;-80
2022/09/06 00:49:56;;;;;;;0.00;0.00;;;19.50;89.80;;;;;;5072639;28;20048;-80
2022/09/06 00:52:24;;;;;;;0.00;0.00;;;19.40;90.30;;;;;;5072479;28;20049;-80
2022/09/06 00:54:50;;;;;;;0.20;0.10;;;19.40;90.70;;;;;;5072802;28;20106;-80
2022/09/06 00:57:17;;;;;;;0.10;0.10;;;19.40;90.40;;;;;;5072294;28;20048;-80
2022/09/06 00:59:44;;;;;;;0.00;0.00;;;19.30;91.00;;;;;;5072400;28;20051;-80
2022/09/06 01:02:10;;;;;;;0.00;0.00;;;19.30;91.00;;;;;;5054416;28;20041;-80
2022/09/06 01:04:38;;;;;;;0.00;0.00;;;19.20;90.50;;;;;;5056141;28;20098;-80
2022/09/06 01:07:07;;;;;;;0.00;0.00;;;19.20;90.30;;;;;;5072291;28;20049;-80
2022/09/06 01:10:00;;;;;;;0.00;0.00;;;19.20;90.20;;;;;;5055964;28;20060;-80
2022/09/06 01:12:41;;;;;;;0.08;0.00;;;19.20;90.60;;;;;;5055200;28;20447;-80
2022/09/06 01:15:27;;;;;;;0.00;0.00;;;19.20;91.20;;;;;;5073198;28;20136;-80
2022/09/06 01:18:11;;;;;;;0.00;0.00;;;19.20;91.30;;;;;;5034817;28;20060;-80
2022/09/06 01:20:49;;;;;;;7.07;0.63;;;19.10;91.30;;;;;;5037021;28;20052;-80
2022/09/06 01:23:51;;;;;;;0.10;0.10;;;19.10;92.10;;;;;;5039129;28;20088;-80
2022/09/06 01:26:44;;;;;;;0.00;0.00;;;19.10;90.90;;;;;;5038596;28;20561;-80
2022/09/06 01:29:22;;;;;;;0.00;0.00;;;19.20;90.90;;;;;;5022355;28;20068;-79
2022/09/06 01:31:55;;;;;;;0.00;0.00;;;19.20;91.20;;;;;;5055890;28;20049;-80
2022/09/06 01:34:27;;;;;;;0.00;0.00;;;19.20;91.40;;;;;;5038799;28;20456;-80
2022/09/06 01:37:02;;;;;;;0.00;0.00;;;19.10;91.70;;;;;;5022455;28;20045;-80
2022/09/06 01:39:35;;;;;;;0.55;0.08;;;19.10;91.30;;;;;;5038790;28;20470;-80
2022/09/06 01:42:28;;;;;;;0.00;0.00;;;19.00;91.20;;;;;;5055223;28;20156;-79
2022/09/06 01:45:26;;;;;;;0.20;0.20;;;19.10;91.30;;;;;;5035979;28;20140;-80
2022/09/06 01:48:10;;;;;;;0.00;0.00;;;19.10;91.50;;;;;;4941143;29;20585;-80
2022/09/06 01:50:45;;;;;;;0.10;0.10;;;19.00;92.20;;;;;;4940497;29;20059;-80
2022/09/06 01:53:26;;;;;;;;;;;19.00;92.70;;;;;;4941129;29;20394;-80
2022/09/06 01:56:16;;;;;;;0.00;0.00;;;19.00;91.30;;;;;;4976777;28;20056;-80
2022/09/06 01:58:52;;;;;;;0.65;0.20;;;19.00;92.00;;;;;;4979895;28;20054;-80
2022/09/06 02:01:50;;;;;;;0.00;0.00;;;18.90;92.70;;;;;;4979630;28;20057;-80
2022/09/06 02:04:33;;;;;;;0.00;0.00;;;18.90;92.60;;;;;;4995576;28;20050;-80
2022/09/06 02:07:04;;;;;;;0.00;0.00;;;18.90;92.10;;;;;;4979778;28;20137;-80
2022/09/06 02:09:36;;;;;;;0.20;0.20;;;18.90;92.30;;;;;;4995498;28;20623;-80
2022/09/06 02:12:04;;;;;;;0.00;0.00;;;18.90;92.20;;;;;;4979237;28;20055;-80
2022/09/06 02:14:41;;;;;;;0.00;0.00;;;18.90;92.20;;;;;;4995246;28;20502;-79
2022/09/06 02:17:13;;;;;;;0.00;0.00;;;18.80;92.90;;;;;;4995199;28;20609;-79
2022/09/06 02:19:46;;;;;;;0.00;0.00;;;18.80;92.50;;;;;;4995450;28;20086;-80
2022/09/06 02:22:16;;;;;;;0.00;0.00;;;18.80;92.50;;;;;;4979167;28;20113;-80
2022/09/06 02:24:44;;;;;;;0.00;0.00;;;18.80;93.40;;;;;;5049811;28;20059;-80
2022/09/06 02:27:11;;;;;;;0.00;0.00;;;18.80;93.50;;;;;;5058856;28;20056;-80
2022/09/06 02:29:37;;;;;;;0.00;0.00;;;18.70;93.10;;;;;;5075283;28;20545;-80
2022/09/06 02:32:13;;;;;;;0.00;0.00;;;18.70;93.20;;;;;;5057670;28;20052;-80
2022/09/06 02:34:39;;;;;;;0.00;0.00;;;18.70;93.10;;;;;;5075849;28;20075;-80
2022/09/06 02:37:06;;;;;;;0.08;0.00;;;18.70;93.00;;;;;;5058453;28;20067;-80
2022/09/06 02:39:32;;;;;;;0.00;0.00;;;18.70;92.90;;;;;;5058963;28;20404;-80
2022/09/06 02:42:00;;;;;;;0.00;0.00;;;18.70;93.00;;;;;;5075065;28;20484;-80
2022/09/06 02:44:25;;;;;;;0.25;0.20;;;18.70;93.20;;;;;;5109588;28;20091;-80
2022/09/06 02:46:51;;;;;;;0.00;0.00;;;18.70;93.40;;;;;;5058560;28;20076;-80
2022/09/06 02:49:16;;;;;;;0.00;0.00;;;18.60;93.40;;;;;;5075080;28;20048;-80
2022/09/06 02:51:42;;;;;;;0.00;0.00;;;18.60;93.50;;;;;;5074628;28;20060;-80
2022/09/06 02:54:08;;;;;;;0.00;0.00;;;18.60;94.00;;;;;;5075050;28;20067;-80
2022/09/06 02:56:35;;;;;;;0.00;0.00;;;18.60;93.90;;;;;;5074807;28;20037;-80
2022/09/06 02:59:04;;;;;;;0.00;0.00;;;18.60;93.70;;;;;;5074864;28;20044;-80
2022/09/06 03:01:30;;;;;;;0.20;0.10;;;18.60;94.10;;;;;;5058029;28;20057;-80
2022/09/06 03:03:56;;;;;;;0.00;0.00;;;18.60;93.80;;;;;;5074757;28;20044;-80
2022/09/06 03:06:22;;;;;;;0.00;0.00;;;18.60;94.00;;;;;;5074696;28;20048;-80
2022/09/06 03:08:47;;;;;;;0.00;0.00;;;18.60;93.80;;;;;;5057759;28;20062;-80
2022/09/06 03:11:13;;;;;;;0.00;0.00;;;18.60;93.40;;;;;;5074580;28;20044;-80
2022/09/06 03:13:39;;;;;;;0.00;0.00;;;18.60;93.60;;;;;;5074321;28;20101;-79
2022/09/06 03:16:04;;;;;;;0.00;0.00;;;18.60;93.40;;;;;;5074600;28;20040;-79
2022/09/06 03:18:31;;;;;;;0.00;0.00;;;18.50;93.60;;;;;;5057836;28;20518;-79
2022/09/06 03:20:57;;;;;;;0.00;0.00;;;18.50;93.30;;;;;;5074480;28;20041;-79
2022/09/06 03:23:25;;;;;;;0.00;0.00;;;18.50;93.60;;;;;;5057910;28;20054;-80
2022/09/06 03:25:51;;;;;;;0.00;0.00;;;18.50;93.50;;;;;;5074393;28;20044;-79
2022/09/06 03:28:17;;;;;;;0.00;0.00;;;18.50;93.80;;;;;;5057886;28;20054;-79
2022/09/06 03:30:48;;;;;;;0.00;0.00;;;18.50;93.60;;;;;;5074372;28;20083;-79
2022/09/06 03:33:14;;;;;;;0.00;0.00;;;18.50;94.30;;;;;;5057684;28;20049;-80
2022/09/06 03:35:47;;;;;;;0.00;0.00;;;18.50;94.40;;;;;;5074326;28;20132;-80
2022/09/06 03:38:13;;;;;;;0.00;0.00;;;18.50;94.10;;;;;;5074126;28;20056;-80
2022/09/06 03:40:38;;;;;;;0.00;0.00;;;18.50;93.90;;;;;;5073811;28;20502;-79
2022/09/06 03:43:04;;;;;;;0.10;0.10;;;18.50;93.80;;;;;;5057497;28;20045;-79
2022/09/06 03:45:30;;;;;;;0.00;0.00;;;18.50;93.80;;;;;;5073781;28;20080;-80
2022/09/06 03:47:55;;;;;;;1.02;0.00;;;18.60;94.00;;;;;;5057488;28;20143;-79
2022/09/06 03:50:21;;;;;;;0.10;0.10;;;18.50;94.00;;;;;;5073774;28;20045;-79
2022/09/06 03:52:47;;;;;;;0.10;0.00;;;18.50;93.80;;;;;;5057085;28;20105;-79
2022/09/06 03:55:12;;;;;;;0.00;0.00;;;18.60;94.10;;;;;;5073601;28;20037;-80
2022/09/06 03:57:38;;;;;;;0.22;0.08;;;18.60;94.10;;;;;;5073701;28;20044;-79
2022/09/06 04:00:04;;;;;;;0.00;0.00;;;18.60;94.30;;;;;;5057287;28;20049;-80
2022/09/06 04:02:30;;;;;;;0.00;0.00;;;18.60;94.60;;;;;;5073710;28;20048;-79
2022/09/06 04:04:55;;;;;;;0.00;0.00;;;18.60;94.50;;;;;;5057015;28;20427;-79
2022/09/06 04:07:21;;;;;;;0.00;0.00;;;18.60;94.40;;;;;;5073422;28;20052;-79
2022/09/06 04:09:47;;;;;;;0.00;0.00;;;18.60;94.30;;;;;;5073858;28;20044;-79
2022/09/06 04:12:13;;;;;;;0.00;0.00;;;18.60;94.30;;;;;;5073079;28;20473;-79
2022/09/06 04:14:39;;;;;;;0.10;0.00;;;18.60;94.10;;;;;;5073899;28;20067;-79
2022/09/06 04:17:04;;;;;;;0.00;0.00;;;18.60;94.00;;;;;;5056846;28;20051;-79
2022/09/06 04:19:30;;;;;;;0.00;0.00;;;18.60;94.10;;;;;;5056785;28;20052;-79
2022/09/06 04:21:56;;;;;;;0.00;0.00;;;18.60;94.50;;;;;;5072987;28;20044;-79
2022/09/06 04:24:21;;;;;;;0.00;0.00;;;18.60;94.80;;;;;;5055937;28;20086;-81
2022/09/06 04:26:47;;;;;;;0.05;0.00;;;18.60;94.40;;;;;;5056915;28;20448;-80
2022/09/06 04:29:12;;;;;;;0.00;0.00;;;18.60;94.60;;;;;;5055787;28;20053;-80
2022/09/06 04:31:38;;;;;;;0.00;0.00;;;18.60;94.80;;;;;;5056602;28;20058;-80
2022/09/06 04:34:04;;;;;;;0.00;0.00;;;18.60;95.40;;;;;;5073090;28;20059;-80
2022/09/06 04:36:29;;;;;;;0.00;0.00;;;18.60;95.70;;;;;;5073894;28;20098;-80
2022/09/06 04:38:55;;;;;;;0.20;0.17;;;18.50;95.70;;;;;;5056601;28;20060;-80
2022/09/06 04:41:21;;;;;;;0.08;0.08;;;18.50;95.30;;;;;;5073023;28;20093;-80
2022/09/06 04:43:47;;;;;;;0.05;0.03;;;18.50;95.20;;;;;;5073366;28;20370;-80
2022/09/06 04:46:23;;;;;;;0.00;0.00;;;18.50;95.50;;;;;;5056294;28;20052;-80
2022/09/06 04:48:50;;;;;;;0.45;0.10;;;18.50;95.80;;;;;;5056218;28;20063;-80
2022/09/06 04:51:16;;;;;;;0.10;0.10;;;18.50;96.10;;;;;;5072431;28;20068;-80
2022/09/06 04:53:41;;;;;;;0.00;0.00;;;18.50;96.20;;;;;;5073232;28;20425;-80
2022/09/06 04:56:14;;;;;;;0.00;0.00;;;18.40;96.60;;;;;;5055967;28;20137;-80
2022/09/06 04:58:41;;;;;;;0.00;0.00;;;18.40;96.90;;;;;;5072641;28;20053;-80
2022/09/06 05:01:07;;;;;;;0.00;0.00;;;18.40;97.50;;;;;;5072810;28;20130;-80
2022/09/06 05:03:32;;;;;;;0.52;0.00;;;18.40;97.10;;;;;;5056029;28;20088;-80
2022/09/06 05:06:07;;;;;;;0.00;0.00;;;18.40;97.20;;;;;;5072658;28;20131;-80
2022/09/06 05:08:32;;;;;;;0.00;0.00;;;18.30;98.00;;;;;;5055788;28;20438;-80
2022/09/06 05:10:58;;;;;;;0.10;0.10;;;18.30;98.50;;;;;;5072582;28;20044;-80
2022/09/06 05:13:23;;;;;;;0.00;0.00;;;18.30;99.00;;;;;;5072471;28;20040;-80
2022/09/06 05:15:49;;;;;;;0.10;0.03;;;18.30;99.40;;;;;;5055687;28;20064;-80
2022/09/06 05:18:15;;;;;;;0.10;0.10;;;18.20;99.40;;;;;;5055898;28;20076;-80
2022/09/06 05:20:40;;;;;;;0.00;0.00;;;18.20;99.40;;;;;;5072521;28;20041;-80
2022/09/06 05:23:06;;;;;;;0.00;0.00;;;18.20;99.00;;;;;;5072679;28;20235;-80
2022/09/06 05:25:31;;;;;;;0.13;0.13;;;18.20;99.60;;;;;;5072451;28;20072;-81
2022/09/06 05:27:57;;;;;;;0.00;0.00;;;18.20;99.80;;;;;;5072515;28;20410;-80
2022/09/06 05:30:23;;;;;;;0.00;0.00;;;18.20;99.90;;;;;;5055290;28;20060;-81
2022/09/06 05:32:49;;;;;;;0.00;0.00;;;18.20;99.90;;;;;;5055827;28;20101;-80
2022/09/06 05:35:15;;;;;;;0.08;0.00;;;18.20;99.90;;;;;;5072338;28;20098;-80
2022/09/06 05:37:41;;;;;;;0.00;0.00;;;18.20;99.90;;;;;;5055843;28;20094;-81
2022/09/06 05:40:07;;;;;;;0.00;0.00;;;18.10;99.90;;;;;;5056079;28;20505;-81
2022/09/06 05:42:33;;;;;;;0.00;0.00;;;18.20;99.90;;;;;;5072342;28;20058;-80
2022/09/06 05:44:58;;;;;;;0.20;0.10;;;18.10;99.90;;;;;;5055674;28;20174;-80
2022/09/06 05:47:24;;;;;;;0.00;0.00;;;18.10;99.90;;;;;;5072252;28;20040;-80
2022/09/06 05:49:50;;;;;;;0.00;0.00;;;18.10;99.90;;;;;;5056282;28;20048;-80
2022/09/06 05:52:17;;;;;;;0.10;0.00;;;18.10;99.90;;;;;;5071537;28;20131;-81
2022/09/06 05:54:42;;;;;;;0.05;0.05;;;18.10;99.90;;;;;;5055447;28;20133;-80
2022/09/06 05:57:08;;;;;;;0.00;0.00;;;18.00;99.90;;;;;;5055524;28;20052;-80
2022/09/06 05:59:34;;;;;;;0.00;0.00;;;18.10;99.90;;;;;;5072030;28;20047;-79
2022/09/06 06:01:59;;;;;;;0.00;0.00;;;17.90;99.90;;;;;;5071997;28;20052;-80
2022/09/06 06:04:25;;;;;;;0.10;0.10;;;17.90;99.90;;;;;;5072116;28;20055;-80
2022/09/06 06:06:50;;;;;;;0.00;0.00;;;17.90;99.90;;;;;;5074838;28;20076;-79
2022/09/06 06:09:16;;;;;;;0.20;0.13;;;17.90;99.90;;;;;;5076129;28;20460;-80
2022/09/06 06:11:42;;;;;;;0.00;0.00;;;17.90;99.90;;;;;;5059103;28;20040;-80
2022/09/06 06:14:08;;;;;;;0.00;0.00;;;17.90;99.90;;;;;;5075800;28;20044;-81
2022/09/06 06:16:34;;;;;;;0.85;0.47;;;17.80;99.90;;;;;;5075256;28;20048;-80
2022/09/06 06:18:59;;;;;;;0.00;0.00;;;17.80;99.90;;;;;;5059980;28;20139;-80
2022/09/06 06:21:29;;;;;;;0.30;0.00;;;17.90;99.90;;;;;;5075399;28;20452;-81
2022/09/06 06:24:00;;;;;;;0.00;0.00;;;17.90;99.90;;;;;;5059237;28;20049;-81
2022/09/06 06:26:28;;;;;;;0.20;0.10;;;18.00;99.90;;;;;;5058947;28;20491;-81
2022/09/06 06:28:56;;;;;;;0.10;0.10;;;18.00;99.90;;;;;;5058968;28;20053;-81
2022/09/06 06:31:22;;;;;;;2.20;0.10;;;18.00;99.90;;;;;;5058733;28;20052;-80
2022/09/06 06:33:49;;;;;;;0.00;0.00;;;18.10;99.90;;;;;;5074913;28;20040;-81
2022/09/06 06:36:14;;;;;;;0.00;0.00;;;18.10;99.90;;;;;;5075516;28;20086;-81
2022/09/06 06:38:42;;;;;;;0.88;0.20;;;18.10;99.90;;;;;;5058731;28;20052;-80
2022/09/06 06:41:10;;;;;;;3.00;0.65;;;18.10;99.90;;;;;;5058880;28;20066;-80
2022/09/06 06:43:36;;;;;;;0.00;0.00;;;18.20;99.90;;;;;;5058654;28;20135;-80
2022/09/06 06:46:16;;;;;;;0.10;0.10;;;18.20;99.90;;;;;;5058584;28;20518;-80
2022/09/06 06:48:43;;;;;;;0.00;0.00;;;18.20;99.90;;;;;;5058411;28;20550;-80
2022/09/06 06:51:19;;;;;;;0.00;0.00;;;18.30;99.90;;;;;;5075041;28;20387;-80
2022/09/06 06:53:48;;;;;;;2.28;0.45;;;18.30;99.90;;;;;;5058227;28;20554;-80
2022/09/06 06:56:21;;;;;;;0.00;0.00;;;18.40;99.90;;;;;;5058606;28;20139;-79
2022/09/06 06:58:49;;;;;;;0.00;0.00;;;18.40;99.90;;;;;;5074949;28;20131;-80
2022/09/06 07:01:15;;;;;;;0.10;0.10;;;18.40;99.90;;;;;;5074884;28;20514;-79
2022/09/06 07:03:41;;;;;;;0.10;0.10;;;18.40;99.90;;;;;;5075276;28;20091;-80
2022/09/06 07:06:07;;;;;;;0.00;0.00;;;18.50;99.90;;;;;;5058273;28;20060;-80
2022/09/06 07:08:34;;;;;;;0.45;0.00;;;18.50;99.90;;;;;;5074443;28;20094;-80
2022/09/06 07:11:00;;;;;;;0.20;0.20;;;18.50;99.90;;;;;;5073891;28;20079;-80
2022/09/06 07:13:25;;;;;;;0.73;0.32;;;18.60;99.90;;;;;;5072921;28;20493;-80
2022/09/06 07:15:51;;;;;;;0.00;0.00;;;18.60;99.90;;;;;;5074831;28;20070;-80
2022/09/06 07:18:17;;;;;;;0.00;0.00;;;18.60;99.90;;;;;;5074063;28;20040;-80
2022/09/06 07:20:43;;;;;;;0.00;0.00;;;18.60;99.90;;;;;;5074740;28;20487;-80
2022/09/06 07:23:09;;;;;;;0.10;0.00;;;18.70;99.90;;;;;;5074472;28;20098;-80
2022/09/06 07:25:35;;;;;;;0.20;0.10;;;18.70;99.90;;;;;;5058475;28;20051;-78
2022/09/06 07:28:08;;;;;;;0.00;0.00;;;18.80;99.90;;;;;;5074684;28;20041;-79
2022/09/06 07:30:36;;;;;;;0.00;0.00;;;18.80;99.90;;;;;;5057779;28;20051;-79
2022/09/06 07:33:04;;;;;;;0.00;0.00;;;18.80;99.90;;;;;;5057510;28;20072;-80
2022/09/06 07:35:30;;;;;;;0.10;0.10;;;18.80;99.90;;;;;;5057894;28;20056;-79
2022/09/06 07:37:58;;;;;;;0.00;0.00;;;18.70;99.90;;;;;;5057778;28;20056;-80
2022/09/06 07:40:26;;;;;;;0.08;0.08;;;18.70;99.90;;;;;;5074384;28;20067;-79
2022/09/06 07:42:55;;;;;;;0.00;0.00;;;18.70;99.90;;;;;;5057877;28;20048;-80
2022/09/06 07:45:20;;;;;;;0.00;0.00;;;18.70;99.90;;;;;;5057475;28;20047;-79
2022/09/06 07:47:58;;;;;;;0.00;0.00;;;18.70;99.90;;;;;;5057672;28;20044;-80
2022/09/06 07:50:29;;;;;;;0.00;0.00;;;18.70;99.90;;;;;;5073487;28;20143;-79
2022/09/06 07:53:02;;;;;;;0.20;0.00;;;18.80;99.90;;;;;;5057500;28;20044;-80
2022/09/06 07:55:28;;;;;;;0.00;0.00;;;18.90;99.90;;;;;;5074356;28;20051;-80
2022/09/06 07:57:53;;;;;;;0.00;0.00;;;18.90;99.90;;;;;;5074012;28;20567;-80
2022/09/06 08:00:19;;;;;;;0.00;0.00;;;18.90;99.90;;;;;;5073728;28;20087;-80
2022/09/06 08:02:45;;;;;;;0.00;0.00;;;18.90;99.90;;;;;;5057474;28;20140;-80
2022/09/06 08:05:10;;;;;;;0.08;0.08;;;18.90;99.90;;;;;;5073658;28;20055;-80
2022/09/06 08:07:36;;;;;;;0.00;0.00;;;18.90;99.90;;;;;;5073839;28;20381;-80
2022/09/06 08:10:02;;;;;;;0.28;0.22;;;19.00;99.90;;;;;;5057074;28;20056;-80
2022/09/06 08:12:28;;;;;;;0.00;0.00;;;19.10;99.90;;;;;;5057093;28;20037;-80
2022/09/06 08:14:54;;;;;;;0.05;0.05;;;19.30;99.90;;;;;;5073306;28;20097;-80
2022/09/06 08:17:19;;;;;;;0.00;0.00;;;19.40;99.90;;;;;;5073403;28;20051;-80
2022/09/06 08:19:45;;;;;;;0.00;0.00;;;19.50;99.90;;;;;;5056740;28;20060;-81
2022/09/06 08:22:11;;;;;;;0.00;0.00;;;19.50;99.90;;;;;;5056797;28;20137;-80
2022/09/06 08:24:37;;;;;;;0.15;0.15;;;19.60;99.90;;;;;;5073773;28;20392;-80
2022/09/06 08:27:06;;;;;;;0.10;0.10;;;19.60;99.90;;;;;;5073188;28;20048;-80
2022/09/06 08:29:32;;;;;;;0.32;0.17;;;19.60;99.90;;;;;;5055832;28;20040;-80
2022/09/06 08:31:58;;;;;;;0.32;0.20;;;19.70;99.90;;;;;;5056189;28;20051;-80
2022/09/06 08:34:24;;;;;;;0.00;0.00;;;19.70;99.90;;;;;;5073868;28;20044;-80
2022/09/06 08:36:50;;;;;;;0.10;0.10;;;19.90;99.90;;;;;;5072395;28;20044;-80
2022/09/06 08:39:16;;;;;;;0.00;0.00;;;20.10;99.90;;;;;;5073514;28;20476;-80
2022/09/06 08:42:04;;;;;;;0.17;0.17;;;20.20;99.90;;;;;;5056525;28;20048;-80
2022/09/06 08:44:40;;;;;;;0.25;0.00;;;20.40;99.90;;;;;;5072882;28;20063;-80
2022/09/06 08:47:10;;;;;;;0.00;0.00;;;20.60;99.90;;;;;;5073059;28;20137;-80
2022/09/06 08:49:41;;;;;;;0.10;0.10;;;20.80;99.90;;;;;;5073363;28;20044;-80
2022/09/06 08:52:25;;;;;;;3.17;0.43;;;21.00;99.90;;;;;;5072698;28;20377;-80
2022/09/06 08:55:28;;;;;;;4.32;0.43;;;21.10;99.90;;;;;;5055643;28;20675;-80
2022/09/06 08:58:06;;;;;;;0.00;0.00;;;21.30;99.90;;;;;;5072783;28;20369;-80
2022/09/06 09:00:34;;;;;;;0.00;0.00;;;21.60;99.90;;;;;;5072863;28;20044;-79
2022/09/06 09:03:12;;;;;;;0.03;0.03;;;21.70;99.90;;;;;;5056178;28;20057;-79
2022/09/06 09:05:40;;;;;;;0.15;0.15;;;22.00;99.90;;;;;;5055631;28;20401;-79
2022/09/06 09:08:36;;;;;;;0.40;0.38;;;22.10;99.90;;;;;;5072493;28;20040;-79
2022/09/06 09:11:05;;;;;;;0.00;0.00;;;22.30;99.90;;;;;;5072757;28;20041;-79
2022/09/06 09:13:45;;;;;;;0.40;0.30;;;22.50;99.90;;;;;;5055814;28;20391;-79
2022/09/06 09:16:15;;;;;;;0.00;0.00;;;22.80;99.90;;;;;;5073274;28;20052;-79
2022/09/06 09:18:47;;;;;;;0.10;0.10;;;22.90;99.90;;;;;;5056190;28;20064;-80
2022/09/06 09:21:17;;;;;;;0.63;0.32;;;23.10;99.90;;;;;;5056208;28;20088;-79
2022/09/06 09:23:48;;;;;;;0.00;0.00;;;23.30;99.90;;;;;;5055712;28;20143;-80
2022/09/06 09:26:14;;;;;;;0.00;0.00;;;23.50;99.90;;;;;;5055794;28;20551;-80
2022/09/06 09:29:06;;;;;;;0.00;0.00;;;23.70;99.60;;;;;;5072501;28;20048;-80
2022/09/06 09:31:45;;;;;;;0.52;0.10;;;23.90;99.70;;;;;;5056081;28;20048;-80
2022/09/06 09:34:13;;;;;;;0.10;0.10;;;24.00;99.00;;;;;;5055602;28;20051;-80
2022/09/06 09:36:39;;;;;;;0.10;0.00;;;24.20;98.50;;;;;;5072256;28;20048;-80
2022/09/06 09:39:11;;;;;;;0.40;0.10;;;24.30;98.20;;;;;;5072686;28;20041;-80
2022/09/06 09:41:41;;;;;;;0.00;0.00;;;24.40;98.10;;;;;;5108714;28;20037;-80
2022/09/06 09:44:17;;;;;;;0.17;0.00;;;24.40;97.90;;;;;;5076162;28;20543;-80
2022/09/06 09:46:43;;;;;;;0.00;0.00;;;24.60;98.50;;;;;;5076480;28;20400;-79
2022/09/06 09:49:27;;;;;;;0.00;0.00;;;24.70;96.60;;;;;;5076024;28;20040;-80
2022/09/06 09:52:13;;;;;;;0.45;0.28;;;24.80;97.70;;;;;;5075912;28;20084;-80
2022/09/06 09:54:45;;;;;;;0.00;0.00;;;24.80;97.00;;;;;;5076210;28;20150;-81
2022/09/06 09:57:17;;;;;;;0.20;0.20;;;25.00;96.90;;;;;;5076220;28;20142;-81
2022/09/06 09:59:56;;;;;;;0.08;0.08;;;25.10;97.30;;;;;;5076317;28;20080;-81
2022/09/06 10:02:30;;;;;;;0.00;0.00;;;25.30;97.00;;;;;;5059709;28;20072;-80
2022/09/06 10:05:05;;;;;;;1.73;0.28;;;25.40;97.00;;;;;;5059905;28;20438;-80
2022/09/06 10:07:32;;;;;;;0.30;0.10;;;25.60;95.70;;;;;;5059010;28;20044;-81
2022/09/06 10:10:03;;;;;;;0.08;0.08;;;25.70;94.70;;;;;;5058563;28;20060;-81
2022/09/06 10:12:40;;;;;;;0.03;0.03;;;25.80;94.70;;;;;;5075007;28;20048;-82
2022/09/06 10:15:08;;;;;;;0.00;0.00;;;26.00;94.80;;;;;;5075674;28;20492;-81
2022/09/06 10:17:48;;;;;;;0.43;0.10;;;26.10;94.10;;;;;;5075660;28;20052;-81
2022/09/06 10:20:13;;;;;;;0.38;0.25;;;26.20;94.90;;;;;;5075736;28;20043;-81
2022/09/06 10:22:55;;;;;;;0.00;0.00;;;26.30;92.90;;;;;;5059597;28;20392;-81
2022/09/06 10:25:36;;;;;;;0.00;0.00;;;26.30;92.80;;;;;;5075400;28;20113;-82
2022/09/06 10:28:13;;;;;;;0.00;0.00;;;26.50;93.90;;;;;;5058884;28;20139;-81
2022/09/06 10:30:59;;;;;;;0.03;0.00;;;26.70;92.90;;;;;;5075301;28;20444;-81
2022/09/06 10:33:57;;;;;;;0.00;0.00;;;26.70;91.70;;;;;;5058209;28;20036;-81
2022/09/06 10:36:39;;;;;;;0.00;0.00;;;26.90;93.00;;;;;;5075511;28;20040;-81
2022/09/06 10:39:37;;;;;;;0.20;0.10;;;27.10;92.20;;;;;;5075190;28;20039;-82
2022/09/06 10:42:08;;;;;;;0.00;0.00;;;27.20;92.40;;;;;;5075345;28;20053;-82
2022/09/06 10:44:46;;;;;;;0.00;0.00;;;27.40;91.30;;;;;;5058724;28;20063;-81
2022/09/06 10:47:15;;;;;;;0.10;0.10;;;27.50;90.60;;;;;;5075167;28;20134;-81
2022/09/06 10:49:46;;;;;;;0.00;0.00;;;27.50;91.50;;;;;;5074662;28;20471;-81
2022/09/06 10:52:22;;;;;;;0.00;0.00;;;27.70;90.40;;;;;;5073644;28;20064;-82
2022/09/06 10:54:48;;;;;;;0.00;0.00;;;27.80;90.30;;;;;;5058688;28;20397;-81
2022/09/06 10:57:24;;;;;;;0.00;0.00;;;27.90;88.70;;;;;;5058486;28;20044;-81
2022/09/06 10:59:58;;;;;;;0.05;0.00;;;27.90;88.40;;;;;;5074772;28;20052;-82
2022/09/06 11:02:39;;;;;;;;;;;27.90;86.90;;;;;;5075475;28;20048;-82
2022/09/06 11:05:19;;;;;;;0.00;0.00;;;27.90;89.20;;;;;;5058516;28;19920;-82
2022/09/06 11:07:52;;;;;;;0.10;0.00;;;28.00;88.10;;;;;;5058067;28;20088;-82
2022/09/06 11:10:26;;;;;;;0.40;0.32;;;28.10;89.80;;;;;;5058089;28;20090;-82
2022/09/06 11:13:17;;;;;;;0.20;0.20;;;28.10;88.80;;;;;;5075216;28;20048;-81
2022/09/06 11:15:58;;;;;;;0.00;0.00;;;28.20;89.20;;;;;;5074658;28;20044;-81
2022/09/06 11:18:37;;;;;;;0.00;0.00;;;28.10;86.10;;;;;;5100711;28;20044;-83
2022/09/06 11:21:24;;;;;;;0.00;0.00;;;28.30;86.00;;;;;;5057973;28;20404;-82
2022/09/06 11:24:13;;;;;;;0.20;0.00;;;28.40;86.00;;;;;;5074741;28;20052;-82
2022/09/06 11:26:43;;;;;;;0.00;0.00;;;28.50;86.80;;;;;;5057958;28;20048;-82
2022/09/06 11:29:26;;;;;;;0.08;0.00;;;28.70;84.90;;;;;;5074315;28;20492;-79
2022/09/06 11:32:01;;;;;;;0.10;0.00;;;28.70;82.40;;;;;;5058088;28;20125;-79
2022/09/06 11:34:29;;;;;;;0.00;0.00;;;28.70;83.50;;;;;;5057222;28;20091;-81
2022/09/06 11:36:57;;;;;;;0.52;0.10;;;28.70;81.50;;;;;;5056339;28;20052;-81
2022/09/06 11:39:28;;;;;;;0.03;0.03;;;28.70;83.90;;;;;;5055607;28;20056;-81
2022/09/06 11:41:54;;;;;;;0.00;0.00;;;28.70;82.80;;;;;;5058409;28;20113;-81
2022/09/06 11:44:48;;;;;;;0.00;0.00;;;28.80;81.80;;;;;;5064667;28;20052;-82
2022/09/06 11:47:46;;;;;;;0.80;0.38;;;28.70;80.50;;;;;;5065900;28;20056;-80
2022/09/06 11:50:24;;;;;;;0.10;0.10;;;28.70;81.90;;;;;;5064626;28;20090;-81
2022/09/06 11:53:06;;;;;;;0.00;0.00;;;28.90;81.80;;;;;;5062051;28;20114;-81
2022/09/06 11:55:36;;;;;;;0.10;0.10;;;28.80;81.20;;;;;;5060182;28;20048;-80
2022/09/06 11:58:11;;;;;;;0.10;0.00;;;28.70;80.10;;;;;;5074695;28;20439;-80
2022/09/06 12:00:36;;;;;;;0.10;0.00;;;28.70;81.00;;;;;;5074282;28;20132;-80
2022/09/06 12:03:07;;;;;;;0.00;0.00;;;28.90;80.00;;;;;;5057178;28;20048;-82
2022/09/06 12:06:12;;;;;;;0.00;0.00;;;29.10;79.90;;;;;;5057217;28;20047;-82
2022/09/06 12:08:37;;;;;;;0.00;0.00;;;29.30;80.00;;;;;;5056555;28;20051;-82
2022/09/06 12:11:20;;;;;;;0.00;0.00;;;29.50;79.10;;;;;;5057351;28;20131;-82
2022/09/06 12:14:09;;;;;;;0.10;0.10;;;29.40;76.60;;;;;;5056640;28;20370;-80
2022/09/06 12:17:03;;;;;;;0.03;0.00;;;29.40;76.00;;;;;;5018632;28;20063;-80
2022/09/06 12:19:51;;;;;;;0.00;0.00;;;29.40;77.00;;;;;;4957219;28;20073;-82
2022/09/06 12:22:28;;;;;;;1.45;0.30;;;29.50;75.70;;;;;;4940657;28;20057;-81
2022/09/06 12:25:00;;;;;;;2.83;0.08;;;29.40;75.50;;;;;;4956948;28;20108;-81
2022/09/06 12:27:38;;;;;;;0.00;0.00;;;29.20;74.90;;;;;;4962760;28;20137;-81
2022/09/06 12:30:10;;;;;;;0.00;0.00;;;29.10;75.40;;;;;;4941187;28;20193;-82
2022/09/06 12:32:44;;;;;;;0.00;0.00;;;29.20;75.70;;;;;;4940937;28;20126;-81
2022/09/06 12:35:16;;;;;;;0.00;0.00;;;29.50;76.20;;;;;;4941326;28;20062;-82
2022/09/06 12:38:02;;;;;;;0.00;0.00;;;29.80;76.60;;;;;;4941124;28;20058;-83
2022/09/06 12:40:31;;;;;;;0.00;0.00;;;29.90;73.20;;;;;;4941121;28;20384;-82
2022/09/06 12:42:57;;;;;;;0.00;0.00;;;30.00;72.40;;;;;;4940980;28;20515;-82
2022/09/06 12:45:24;;;;;;;0.00;0.00;;;30.10;70.80;;;;;;4941139;28;20057;-82
2022/09/06 12:48:06;;;;;;;0.00;0.00;;;30.20;74.10;;;;;;4940529;28;20463;-82
2022/09/06 12:50:33;;;;;;;0.00;0.00;;;30.10;70.70;;;;;;4941078;28;20410;-82
2022/09/06 12:53:01;;;;;;;0.10;0.03;;;30.10;70.60;;;;;;4965366;28;20375;-82
2022/09/06 12:55:33;;;;;;;1.27;0.35;;;30.20;71.40;;;;;;4987629;28;20118;-82
2022/09/06 12:58:02;;;;;;;0.00;0.00;;;30.30;69.00;;;;;;5069439;28;20052;-82
2022/09/06 13:00:39;;;;;;;0.00;0.00;;;30.30;70.00;;;;;;5086706;28;20045;-82
2022/09/06 13:03:30;;;;;;;0.00;0.00;;;30.30;70.10;;;;;;5072616;28;20450;-81
2022/09/06 13:05:58;;;;;;;0.00;0.00;;;30.20;69.70;;;;;;5072723;28;20037;-81
2022/09/06 13:08:40;;;;;;;0.00;0.00;;;30.30;70.40;;;;;;5073081;28;20071;-81